Pagina principale
METAR-TAF:

METAR-TAF

Aeroporti :

Army Air Corps Middle Wallop

Middle Wallop, Inghilterra

latitudine: 51-09N, longitudine: 001-34W, altezza: 91 m

Osservazione

Il bollettino è stato emesso 1 ora e 5 minuti fa, alle 21:50 UTC
Vento 8 kt da sud
Temperature 14°C
Umidità 82%
Pressione 1018 hPa
Visibilità 10 km o più

METAR: EGVP 162150Z AUTO 19008KT 9999 // BKN013/// BKN044/// 14/11 Q1018

Ora: 23:55 (22:55 UTC)


TAF: mancante

Osservazioni e previsioni meteorologiche di più di 4000 aeroporti (messaggi METAR e TAF).

Le stazioni disponibili sono rappresentate dai dischi gialli e rossi sulla carta.

Puntare il mouse per vedere il nome della stazione.

Clicca sopra per visualizzare le osservazioni e previsioni meteorologiche.

Per cambiare la mappa : fare clic sui pulsanti verdi con una croce nera per ingrandire, il pulsante verde con un trattino per diminuire, o sulla freccia verde per le mappe adiacenti.


METAR-TAF: